My Meet Scores
Madison Amolsch, Aerial Gymnastics Club - MyMeetScores.com
Top100 | Top Teams | Upcoming Meets | Completed Meets | Latest | Add Scores | Help| Support | Bookmark and Share

Madison Amolsch, Aerial Gymnastics Club
Personal Bests
LevelVault BarsBeamFloorAA
28.0008.150 8.7008.35033.200
39.3509.500 8.9009.05036.325
48.4259.275 9.1009.02534.850
58.6008.700 8.8008.40034.500
Meet Scores
Date Meet Team Session Level Division Vault Bars Beam Floor AA
2019-12-06 Ultimate Wish Classic Aerial Gymnastics Club 6B 5 SR B 8.600 11T 8.700 5T 8.800 7 8.400 14 34.500 5
2019-02-15 Women's Midwest Open Aerial Gymnastics Club 09 4 Senior B 7.300 18 9.025 8T 8.950 8T 8.625 16 33.900 13
2019-01-19 2019 Hang 10.0 Invitational Aerial Gymnastics Club 1 4 10-11 Yr O 7.600 16T 9.275 2 9.100 4 8.225 13 34.200 9
2019-01-11 St Jude Benefit Meet Aerial Gymnastics Club 7A 4 Sr B 8.200 17T 8.900 6T 8.750 11 9.000 7 34.850 8
2018-12-14 Hawaiian Pineapple Classic Aerial Gymnastics Club 6A 4 Ages12+ 6.750 12 9.100 3T 9.000 7 8.300 10 33.150 9
2018-11-30 Ultimate Wish Classic Aerial Gymnastics Club 11 4 SR B 8.100 19 9.150 5T 8.950 9 8.500 17 34.700 14
2018-02-23 Kinetic Classic Infinity Gymnastics Academy 7 4 Older 7.800 75T 8.075 76 9.075 45T 9.025 44 33.975 63T
2018-02-17 Women's Midwest Open Infinity Gymnastics Academy 08 4 JR B 8.425 12 8.075 15 8.850 7T 8.050 16 33.400 15
2018-01-18 Circle Of Stars Gymnastics Invitational Infinity Gymnastics Academy C3 4 Sr A 8.300 13 8.050 14T 9.000 9T 8.125 13 33.475 13
2018-01-12 St Jude Benefit Meet Infinity Gymnastics Academy 3A 4 SrA 7.850 14 8.100 13 8.925 9 7.875 18 32.750 14
2017-12-14 2017 Women's Hawaiian Pineapple Classic Infinity Gymnastics Academy 1A 4 Ages11+ 7.050 17 8.125 13 8.225 14 8.450 12 31.850 16
2017-11-10 Illinois NAWGJ Judges Cup 2017 Infinity Gymnastics Academy G3 4 All Ages 7.550 66T 8.450 38 8.625 35T 7.750 64T 32.375 50
2017-03-30 2017 Illinois Level 3 & 5 State Infinity Gymnastics Academy All 3 Sr A 9.350 23 9.500 6T 8.900 22 8.575 27T 36.325 21
2017-03-10 Lucky Invitational Infinity Gymnastics Academy B02 3 Sr B 8.700 14 9.250 9T 8.800 12 9.050 12 35.800 13
2017-02-10 IGI Chicago Style Gymnastics Meet Infinity Gymnastics Academy 232L 3 Sr 8.775 21 8.650 16 8.550 18 8.200 21 34.175 20
2017-01-28 Wisconsin Dells Gymnastics Vacation Classic - USAG Infinity Gymnastics Academy B6 3 Junior B 9.025 9T 9.425 1 8.400 11 8.550 9 35.400 8
2017-01-13 St Jude Benefit Meet Infinity Gymnastics Academy 9A 3 Sr A 8.775 14T 9.350 9 8.125 14T 8.950 12 35.200 14
2016-12-15 2016 Hawaiian Pineapple Sanction Infinity Gymnastics Academy 5B 3 Age 10 8.700 11 8.300 8 8.700 5 8.250 7 33.950 7
2016-11-11 2016 Illinois Judges Cup Infinity Gymnastics Academy B6 3 9-10 Year 9.075 13 8.800 7 8.850 5* 8.150 15 34.875 6T
2015-02-27 Elk Grove Gymnastics Invite Action Gymnastics Academy LTD 1 3 6-8yrs 8.200 30 6.550 30 7.800 22 8.100 26 30.650 27
2015-01-23 King Arthur Invitational Action Gymnastics Academy LTD 9A 3 Jr 8.500 18 7.800 17 8.000 16 7.525 18 31.825 18
2014-02-21 EGGS Invite Action Gymnastics Academy LTD 2 2 All 8.000 1 8.150 1 8.700 1 8.350 1 33.200 1
Get your scores on
a t-shirt, pin, or hoodie

Order by December 13

www.lazysuits.com